Terminal Aerodrome Forecast
Issued by NWS

Home | Current Version | Previous Version | Text Only | Print | Product List | Glossary On
Versions: 1 2 3 4 5 6 7 8 9 10 11 12 13 14 15 16 17
000
FTUS42 KMLB 201700
TAFSUA
TAF
KSUA 201740Z 2018/2118 01012KT P6SM SCT030 BKN250
     FM210000 36007KT P6SM SCT030 SCT250
     FM211300 05013KT P6SM VCSH SCT030 SCT250=

USA.gov is the U.S. government's official web portal to all federal, state and local government web resources and services.